sensor_id;sensor_type;location;lat;lon;timestamp;pressure;altitude;pressure_sealevel;temperature;humidity
78839;BME280;68405;47.190;27.558;2023-09-08T00:01:21;100675.98;;;15.87;58.81
78839;BME280;68405;47.190;27.558;2023-09-08T00:03:50;100676.27;;;15.85;58.77
78839;BME280;68405;47.190;27.558;2023-09-08T00:06:19;100674.27;;;15.82;58.85
78839;BME280;68405;47.190;27.558;2023-09-08T00:08:47;100674.87;;;15.79;60.79
78839;BME280;68405;47.190;27.558;2023-09-08T00:11:16;100672.70;;;15.77;59.42
78839;BME280;68405;47.190;27.558;2023-09-08T00:13:45;100672.69;;;15.74;59.18
78839;BME280;68405;47.190;27.558;2023-09-08T00:16:14;100671.80;;;15.70;58.98
78839;BME280;68405;47.190;27.558;2023-09-08T00:18:42;100670.86;;;15.67;60.30
78839;BME280;68405;47.190;27.558;2023-09-08T00:21:11;100669.90;;;15.65;59.30
78839;BME280;68405;47.190;27.558;2023-09-08T00:23:39;100672.89;;;15.61;59.44
78839;BME280;68405;47.190;27.558;2023-09-08T00:26:08;100671.64;;;15.57;58.99
78839;BME280;68405;47.190;27.558;2023-09-08T00:28:37;100676.20;;;15.53;59.12
78839;BME280;68405;47.190;27.558;2023-09-08T00:31:05;100674.07;;;15.49;59.72
78839;BME280;68405;47.190;27.558;2023-09-08T00:33:34;100675.95;;;15.46;60.52
78839;BME280;68405;47.190;27.558;2023-09-08T00:36:03;100675.90;;;15.43;60.42
78839;BME280;68405;47.190;27.558;2023-09-08T00:38:31;100676.14;;;15.42;61.80
78839;BME280;68405;47.190;27.558;2023-09-08T00:41:00;100676.78;;;15.39;60.85
78839;BME280;68405;47.190;27.558;2023-09-08T00:43:29;100675.90;;;15.35;59.51
78839;BME280;68405;47.190;27.558;2023-09-08T00:45:58;100682.11;;;15.33;59.46
78839;BME280;68405;47.190;27.558;2023-09-08T00:48:28;100687.49;;;15.30;59.31
78839;BME280;68405;47.190;27.558;2023-09-08T00:50:57;100688.61;;;15.28;59.44
78839;BME280;68405;47.190;27.558;2023-09-08T00:53:26;100689.42;;;15.25;60.23
78839;BME280;68405;47.190;27.558;2023-09-08T00:55:55;100690.23;;;15.23;62.06
78839;BME280;68405;47.190;27.558;2023-09-08T00:58:25;100692.11;;;15.19;62.15
78839;BME280;68405;47.190;27.558;2023-09-08T01:00:54;100691.55;;;15.16;61.70
78839;BME280;68405;47.190;27.558;2023-09-08T01:03:25;100688.44;;;15.15;61.03
78839;BME280;68405;47.190;27.558;2023-09-08T01:05:55;100689.41;;;15.12;59.94
78839;BME280;68405;47.190;27.558;2023-09-08T01:08:24;100686.52;;;15.10;59.76
78839;BME280;68405;47.190;27.558;2023-09-08T01:10:53;100690.12;;;15.08;59.57
78839;BME280;68405;47.190;27.558;2023-09-08T01:13:23;100690.39;;;15.05;59.55
78839;BME280;68405;47.190;27.558;2023-09-08T01:15:51;100690.52;;;15.02;59.61
78839;BME280;68405;47.190;27.558;2023-09-08T01:18:20;100688.77;;;14.97;59.73
78839;BME280;68405;47.190;27.558;2023-09-08T01:24:04;100690.00;;;14.89;59.75
78839;BME280;68405;47.190;27.558;2023-09-08T01:26:41;100691.05;;;14.84;59.99
78839;BME280;68405;47.190;27.558;2023-09-08T01:29:11;100687.81;;;14.82;59.76
78839;BME280;68405;47.190;27.558;2023-09-08T01:31:42;100692.55;;;14.77;59.63
78839;BME280;68405;47.190;27.558;2023-09-08T01:34:13;100691.52;;;14.72;59.54
78839;BME280;68405;47.190;27.558;2023-09-08T01:36:43;100689.54;;;14.68;59.79
78839;BME280;68405;47.190;27.558;2023-09-08T01:39:13;100687.90;;;14.66;59.77
78839;BME280;68405;47.190;27.558;2023-09-08T01:41:42;100684.43;;;14.60;59.90
78839;BME280;68405;47.190;27.558;2023-09-08T01:44:11;100681.97;;;14.56;60.00
78839;BME280;68405;47.190;27.558;2023-09-08T01:46:40;100679.84;;;14.52;59.98
78839;BME280;68405;47.190;27.558;2023-09-08T01:49:09;100679.66;;;14.47;59.87
78839;BME280;68405;47.190;27.558;2023-09-08T01:51:37;100675.42;;;14.44;59.81
78839;BME280;68405;47.190;27.558;2023-09-08T01:54:06;100673.45;;;14.40;60.13
78839;BME280;68405;47.190;27.558;2023-09-08T01:56:34;100673.39;;;14.37;61.47
78839;BME280;68405;47.190;27.558;2023-09-08T01:59:03;100675.51;;;14.32;60.37
78839;BME280;68405;47.190;27.558;2023-09-08T03:04:28;100674.88;;;13.72;62.55
78839;BME280;68405;47.190;27.558;2023-09-08T03:06:57;100673.07;;;13.69;62.52
78839;BME280;68405;47.190;27.558;2023-09-08T03:09:26;100673.38;;;13.65;62.67
78839;BME280;68405;47.190;27.558;2023-09-08T03:11:55;100671.84;;;13.59;62.90
78839;BME280;68405;47.190;27.558;2023-09-08T03:14:23;100673.61;;;13.52;62.93
78839;BME280;68405;47.190;27.558;2023-09-08T03:16:52;100674.52;;;13.46;62.86
78839;BME280;68405;47.190;27.558;2023-09-08T03:19:21;100681.88;;;13.40;62.88
78839;BME280;68405;47.190;27.558;2023-09-08T03:21:50;100680.52;;;13.33;62.95
78839;BME280;68405;47.190;27.558;2023-09-08T03:24:19;100680.76;;;13.25;62.92
78839;BME280;68405;47.190;27.558;2023-09-08T03:26:47;100683.20;;;13.20;63.12
78839;BME280;68405;47.190;27.558;2023-09-08T03:29:16;100683.92;;;13.14;63.27
78839;BME280;68405;47.190;27.558;2023-09-08T03:31:45;100684.48;;;13.07;63.33
78839;BME280;68405;47.190;27.558;2023-09-08T03:34:14;100685.58;;;13.00;63.28
78839;BME280;68405;47.190;27.558;2023-09-08T03:36:42;100681.58;;;12.94;63.37
78839;BME280;68405;47.190;27.558;2023-09-08T03:39:11;100680.98;;;12.91;63.46
78839;BME280;68405;47.190;27.558;2023-09-08T03:41:40;100679.77;;;12.91;63.47
78839;BME280;68405;47.190;27.558;2023-09-08T03:44:09;100679.05;;;12.91;63.74
78839;BME280;68405;47.190;27.558;2023-09-08T03:46:38;100679.23;;;12.91;63.87
78839;BME280;68405;47.190;27.558;2023-09-08T03:49:07;100684.09;;;12.92;64.03
78839;BME280;68405;47.190;27.558;2023-09-08T03:51:36;100686.88;;;12.92;64.34
78839;BME280;68405;47.190;27.558;2023-09-08T03:54:05;100687.59;;;12.91;65.71
78839;BME280;68405;47.190;27.558;2023-09-08T03:56:34;100684.09;;;12.92;64.46
78839;BME280;68405;47.190;27.558;2023-09-08T03:59:03;100683.13;;;12.95;64.23
78839;BME280;68405;47.190;27.558;2023-09-08T04:01:31;100686.31;;;12.99;64.21
78839;BME280;68405;47.190;27.558;2023-09-08T04:04:00;100691.79;;;13.02;64.52
78839;BME280;68405;47.190;27.558;2023-09-08T04:06:29;100688.63;;;13.08;64.14
78839;BME280;68405;47.190;27.558;2023-09-08T04:08:58;100691.31;;;13.17;64.02
78839;BME280;68405;47.190;27.558;2023-09-08T04:11:27;100697.20;;;13.41;64.94
78839;BME280;68405;47.190;27.558;2023-09-08T04:13:56;100696.57;;;13.55;65.75
78839;BME280;68405;47.190;27.558;2023-09-08T04:16:26;100702.94;;;13.78;64.85
78839;BME280;68405;47.190;27.558;2023-09-08T04:18:55;100699.66;;;14.69;64.53
78839;BME280;68405;47.190;27.558;2023-09-08T04:21:24;100698.29;;;15.85;62.02
78839;BME280;68405;47.190;27.558;2023-09-08T04:23:53;100700.73;;;16.72;59.17
78839;BME280;68405;47.190;27.558;2023-09-08T04:26:21;100701.06;;;17.74;56.19
78839;BME280;68405;47.190;27.558;2023-09-08T04:28:50;100698.94;;;18.87;54.35
78839;BME280;68405;47.190;27.558;2023-09-08T04:31:19;100698.45;;;19.30;52.37
78839;BME280;68405;47.190;27.558;2023-09-08T04:33:50;100700.42;;;18.82;51.45
78839;BME280;68405;47.190;27.558;2023-09-08T04:36:19;100699.17;;;19.48;51.27
78839;BME280;68405;47.190;27.558;2023-09-08T04:38:48;100699.40;;;20.72;47.24
78839;BME280;68405;47.190;27.558;2023-09-08T04:41:16;100695.70;;;21.93;44.50
78839;BME280;68405;47.190;27.558;2023-09-08T04:43:45;100697.29;;;23.18;41.56
78839;BME280;68405;47.190;27.558;2023-09-08T04:46:15;100696.38;;;24.12;37.93
78839;BME280;68405;47.190;27.558;2023-09-08T04:48:44;100700.63;;;25.45;38.90
78839;BME280;68405;47.190;27.558;2023-09-08T04:51:13;100701.70;;;26.65;36.59
78839;BME280;68405;47.190;27.558;2023-09-08T04:53:42;100701.86;;;27.91;33.73
78839;BME280;68405;47.190;27.558;2023-09-08T04:56:13;100707.48;;;28.90;31.13
78839;BME280;68405;47.190;27.558;2023-09-08T04:58:42;100710.95;;;29.98;30.50
78839;BME280;68405;47.190;27.558;2023-09-08T05:01:11;100709.81;;;29.72;26.77
78839;BME280;68405;47.190;27.558;2023-09-08T05:03:39;100708.66;;;31.07;29.27
78839;BME280;68405;47.190;27.558;2023-09-08T05:06:09;100712.08;;;32.17;25.47
78839;BME280;68405;47.190;27.558;2023-09-08T05:08:37;100713.21;;;32.85;23.91
78839;BME280;68405;47.190;27.558;2023-09-08T05:11:06;100715.75;;;33.38;22.69
78839;BME280;68405;47.190;27.558;2023-09-08T05:13:35;100714.27;;;33.86;20.94
78839;BME280;68405;47.190;27.558;2023-09-08T05:16:04;100715.74;;;34.55;21.26
78839;BME280;68405;47.190;27.558;2023-09-08T05:18:41;100712.29;;;33.98;19.63
78839;BME280;68405;47.190;27.558;2023-09-08T05:21:10;100711.77;;;34.70;20.34
78839;BME280;68405;47.190;27.558;2023-09-08T05:23:39;100714.92;;;34.57;19.12
78839;BME280;68405;47.190;27.558;2023-09-08T05:26:08;100718.84;;;36.22;21.34
78839;BME280;68405;47.190;27.558;2023-09-08T05:28:37;100720.58;;;37.47;19.57
78839;BME280;68405;47.190;27.558;2023-09-08T05:31:06;100723.73;;;38.11;16.61
78839;BME280;68405;47.190;27.558;2023-09-08T05:33:35;100722.34;;;38.99;17.13
78839;BME280;68405;47.190;27.558;2023-09-08T05:36:05;100725.79;;;39.70;15.93
78839;BME280;68405;47.190;27.558;2023-09-08T05:38:33;100725.45;;;40.18;14.29
78839;BME280;68405;47.190;27.558;2023-09-08T05:41:02;100728.32;;;40.71;13.41
78839;BME280;68405;47.190;27.558;2023-09-08T05:43:31;100729.17;;;41.22;13.66
78839;BME280;68405;47.190;27.558;2023-09-08T05:46:00;100727.30;;;41.30;14.04
78839;BME280;68405;47.190;27.558;2023-09-08T05:48:29;100726.35;;;41.78;13.49
78839;BME280;68405;47.190;27.558;2023-09-08T05:50:57;100726.31;;;42.44;13.05
78839;BME280;68405;47.190;27.558;2023-09-08T05:53:28;100726.79;;;42.84;12.45
78839;BME280;68405;47.190;27.558;2023-09-08T05:55:56;100732.83;;;43.20;12.29
78839;BME280;68405;47.190;27.558;2023-09-08T05:58:25;100734.30;;;44.05;11.66
78839;BME280;68405;47.190;27.558;2023-09-08T06:00:55;100738.84;;;44.45;11.23
78839;BME280;68405;47.190;27.558;2023-09-08T06:03:24;100738.03;;;44.69;10.89
78839;BME280;68405;47.190;27.558;2023-09-08T06:05:53;100742.95;;;45.02;10.91
78839;BME280;68405;47.190;27.558;2023-09-08T06:08:22;100750.07;;;45.68;10.44
78839;BME280;68405;47.190;27.558;2023-09-08T06:10:51;100747.78;;;45.94;10.32
78839;BME280;68405;47.190;27.558;2023-09-08T06:13:20;100752.45;;;45.40;10.07
78839;BME280;68405;47.190;27.558;2023-09-08T06:15:49;100754.70;;;46.10;9.26
78839;BME280;68405;47.190;27.558;2023-09-08T06:18:18;100751.98;;;46.16;9.57
78839;BME280;68405;47.190;27.558;2023-09-08T06:20:47;100751.96;;;46.84;9.52
78839;BME280;68405;47.190;27.558;2023-09-08T06:23:19;100754.91;;;47.00;8.55
78839;BME280;68405;47.190;27.558;2023-09-08T06:25:49;100753.34;;;47.28;9.09
78839;BME280;68405;47.190;27.558;2023-09-08T06:28:18;100748.31;;;47.41;8.67
78839;BME280;68405;47.190;27.558;2023-09-08T06:30:47;100746.02;;;47.12;8.74
78839;BME280;68405;47.190;27.558;2023-09-08T06:33:15;100744.63;;;47.63;8.71
78839;BME280;68405;47.190;27.558;2023-09-08T06:35:45;100745.21;;;47.65;8.16
78839;BME280;68405;47.190;27.558;2023-09-08T06:38:14;100744.92;;;47.13;8.14
78839;BME280;68405;47.190;27.558;2023-09-08T06:40:43;100742.19;;;48.23;7.55
78839;BME280;68405;47.190;27.558;2023-09-08T06:43:12;100747.27;;;48.36;7.15
78839;BME280;68405;47.190;27.558;2023-09-08T06:45:41;100750.88;;;49.42;6.88
78839;BME280;68405;47.190;27.558;2023-09-08T06:48:10;100748.65;;;50.01;6.64
78839;BME280;68405;47.190;27.558;2023-09-08T06:50:39;100752.17;;;50.79;6.14
78839;BME280;68405;47.190;27.558;2023-09-08T06:53:07;100747.95;;;49.32;6.34
78839;BME280;68405;47.190;27.558;2023-09-08T06:55:36;100748.29;;;50.20;5.77
78839;BME280;68405;47.190;27.558;2023-09-08T06:58:06;100746.73;;;50.09;5.93
78839;BME280;68405;47.190;27.558;2023-09-08T07:00:35;100743.98;;;47.45;7.06
78839;BME280;68405;47.190;27.558;2023-09-08T07:03:04;100742.27;;;47.57;6.81
78839;BME280;68405;47.190;27.558;2023-09-08T07:05:33;100743.10;;;47.04;7.09
78839;BME280;68405;47.190;27.558;2023-09-08T07:08:03;100744.12;;;49.02;6.28
78839;BME280;68405;47.190;27.558;2023-09-08T07:10:34;100746.70;;;50.31;5.90
78839;BME280;68405;47.190;27.558;2023-09-08T07:13:03;100745.55;;;50.91;5.35
78839;BME280;68405;47.190;27.558;2023-09-08T07:15:32;100747.02;;;50.32;5.25
78839;BME280;68405;47.190;27.558;2023-09-08T07:18:01;100745.11;;;50.02;5.42
78839;BME280;68405;47.190;27.558;2023-09-08T07:20:33;100746.34;;;50.69;5.38
78839;BME280;68405;47.190;27.558;2023-09-08T07:23:03;100745.07;;;51.39;5.21
78839;BME280;68405;47.190;27.558;2023-09-08T07:25:32;100745.70;;;50.03;5.33
78839;BME280;68405;47.190;27.558;2023-09-08T07:28:01;100749.23;;;49.90;5.25
78839;BME280;68405;47.190;27.558;2023-09-08T07:30:32;100750.33;;;49.23;5.56
78839;BME280;68405;47.190;27.558;2023-09-08T07:33:01;100747.33;;;49.07;5.40
78839;BME280;68405;47.190;27.558;2023-09-08T07:35:33;100744.34;;;50.59;5.06
78839;BME280;68405;47.190;27.558;2023-09-08T07:38:03;100740.71;;;50.82;4.75
78839;BME280;68405;47.190;27.558;2023-09-08T07:40:33;100738.17;;;51.25;4.23
78839;BME280;68405;47.190;27.558;2023-09-08T07:43:02;100731.23;;;49.23;4.47
78839;BME280;68405;47.190;27.558;2023-09-08T07:45:39;100732.67;;;50.14;4.21
78839;BME280;68405;47.190;27.558;2023-09-08T07:48:08;100735.87;;;50.86;3.88
78839;BME280;68405;47.190;27.558;2023-09-08T07:50:38;100728.96;;;50.29;4.05
78839;BME280;68405;47.190;27.558;2023-09-08T07:53:06;100729.86;;;50.90;4.13
78839;BME280;68405;47.190;27.558;2023-09-08T07:55:35;100728.62;;;50.87;3.85
78839;BME280;68405;47.190;27.558;2023-09-08T07:58:04;100721.51;;;51.15;3.65
78839;BME280;68405;47.190;27.558;2023-09-08T08:00:33;100717.80;;;50.02;4.16
78839;BME280;68405;47.190;27.558;2023-09-08T08:03:03;100715.49;;;51.19;3.83
78839;BME280;68405;47.190;27.558;2023-09-08T08:05:32;100716.58;;;51.22;3.88
78839;BME280;68405;47.190;27.558;2023-09-08T08:08:02;100711.48;;;52.11;3.26
78839;BME280;68405;47.190;27.558;2023-09-08T08:10:31;100715.91;;;52.67;3.27
78839;BME280;68405;47.190;27.558;2023-09-08T08:13:00;100716.27;;;52.57;3.04
78839;BME280;68405;47.190;27.558;2023-09-08T08:15:37;100718.65;;;51.75;2.97
78839;BME280;68405;47.190;27.558;2023-09-08T08:18:06;100714.64;;;52.19;2.97
78839;BME280;68405;47.190;27.558;2023-09-08T08:20:38;100717.73;;;51.23;2.97
78839;BME280;68405;47.190;27.558;2023-09-08T08:23:08;100709.69;;;47.68;4.51
78839;BME280;68405;47.190;27.558;2023-09-08T08:25:36;100709.73;;;46.73;4.84
78839;BME280;68405;47.190;27.558;2023-09-08T08:28:06;100705.90;;;48.19;3.99
78839;BME280;68405;47.190;27.558;2023-09-08T08:30:35;100706.50;;;49.45;3.68
78839;BME280;68405;47.190;27.558;2023-09-08T08:33:04;100709.27;;;49.69;3.65
78839;BME280;68405;47.190;27.558;2023-09-08T08:35:33;100705.23;;;50.37;3.40
78839;BME280;68405;47.190;27.558;2023-09-08T08:38:01;100707.11;;;50.94;3.39
78839;BME280;68405;47.190;27.558;2023-09-08T08:40:31;100699.89;;;50.97;3.80
78839;BME280;68405;47.190;27.558;2023-09-08T08:43:02;100698.13;;;50.72;3.88
78839;BME280;68405;47.190;27.558;2023-09-08T08:45:32;100699.58;;;50.34;3.85
78839;BME280;68405;47.190;27.558;2023-09-08T08:48:02;100697.41;;;48.49;4.52
78839;BME280;68405;47.190;27.558;2023-09-08T08:50:33;100694.48;;;48.69;4.58
78839;BME280;68405;47.190;27.558;2023-09-08T08:53:03;100695.42;;;48.30;4.56
78839;BME280;68405;47.190;27.558;2023-09-08T08:55:32;100693.35;;;48.63;4.57
78839;BME280;68405;47.190;27.558;2023-09-08T08:58:04;100696.14;;;49.18;4.56
78839;BME280;68405;47.190;27.558;2023-09-08T09:00:36;100698.27;;;48.82;5.11
78839;BME280;68405;47.190;27.558;2023-09-08T09:03:06;100694.63;;;48.92;5.05
78839;BME280;68405;47.190;27.558;2023-09-08T09:05:37;100695.80;;;48.75;4.90
78839;BME280;68405;47.190;27.558;2023-09-08T09:08:09;100697.89;;;48.95;5.01
78839;BME280;68405;47.190;27.558;2023-09-08T09:10:39;100693.27;;;49.09;5.12
78839;BME280;68405;47.190;27.558;2023-09-08T09:13:08;100692.02;;;48.41;5.20
78839;BME280;68405;47.190;27.558;2023-09-08T09:15:38;100686.92;;;48.06;5.20
78839;BME280;68405;47.190;27.558;2023-09-08T09:18:08;100679.47;;;48.73;5.13
78839;BME280;68405;47.190;27.558;2023-09-08T09:20:37;100678.03;;;48.74;4.89
78839;BME280;68405;47.190;27.558;2023-09-08T09:23:08;100675.51;;;47.60;5.34
78839;BME280;68405;47.190;27.558;2023-09-08T09:25:38;100674.55;;;47.05;5.14
78839;BME280;68405;47.190;27.558;2023-09-08T09:28:07;100667.95;;;47.40;5.41
78839;BME280;68405;47.190;27.558;2023-09-08T09:30:49;100662.21;;;47.93;5.03
78839;BME280;68405;47.190;27.558;2023-09-08T09:33:19;100666.83;;;47.01;5.74
78839;BME280;68405;47.190;27.558;2023-09-08T09:35:50;100658.11;;;47.55;5.19
78839;BME280;68405;47.190;27.558;2023-09-08T09:38:20;100654.71;;;47.75;5.38
78839;BME280;68405;47.190;27.558;2023-09-08T09:40:49;100658.42;;;47.04;5.51
78839;BME280;68405;47.190;27.558;2023-09-08T09:43:22;100660.45;;;46.02;5.73
78839;BME280;68405;47.190;27.558;2023-09-08T09:45:51;100660.30;;;45.63;6.05
78839;BME280;68405;47.190;27.558;2023-09-08T09:48:24;100655.19;;;46.01;5.82
78839;BME280;68405;47.190;27.558;2023-09-08T09:50:53;100648.52;;;47.32;5.41
78839;BME280;68405;47.190;27.558;2023-09-08T09:53:23;100646.95;;;48.04;5.24
78839;BME280;68405;47.190;27.558;2023-09-08T09:55:52;100649.56;;;46.93;5.43
78839;BME280;68405;47.190;27.558;2023-09-08T09:58:21;100650.48;;;46.86;5.31
78839;BME280;68405;47.190;27.558;2023-09-08T10:00:50;100653.16;;;45.86;5.74
78839;BME280;68405;47.190;27.558;2023-09-08T10:03:20;100652.00;;;44.40;6.39
78839;BME280;68405;47.190;27.558;2023-09-08T10:05:50;100648.85;;;44.76;6.19
78839;BME280;68405;47.190;27.558;2023-09-08T10:08:19;100645.82;;;44.51;6.34
78839;BME280;68405;47.190;27.558;2023-09-08T10:10:48;100645.32;;;45.61;5.80
78839;BME280;68405;47.190;27.558;2023-09-08T10:13:23;100641.18;;;46.29;5.63
78839;BME280;68405;47.190;27.558;2023-09-08T10:15:58;100641.23;;;46.43;5.51
78839;BME280;68405;47.190;27.558;2023-09-08T10:18:27;100638.56;;;46.14;5.63
78839;BME280;68405;47.190;27.558;2023-09-08T10:20:59;100637.32;;;46.58;5.38
78839;BME280;68405;47.190;27.558;2023-09-08T10:23:35;100638.16;;;45.84;5.44
78839;BME280;68405;47.190;27.558;2023-09-08T10:26:08;100636.72;;;45.61;5.29
78839;BME280;68405;47.190;27.558;2023-09-08T10:28:38;100628.52;;;46.12;4.96
78839;BME280;68405;47.190;27.558;2023-09-08T10:31:08;100627.86;;;46.12;5.53
78839;BME280;68405;47.190;27.558;2023-09-08T10:33:38;100625.41;;;45.66;5.48
78839;BME280;68405;47.190;27.558;2023-09-08T10:36:09;100620.02;;;45.53;5.59
78839;BME280;68405;47.190;27.558;2023-09-08T10:38:38;100617.30;;;44.30;6.31
78839;BME280;68405;47.190;27.558;2023-09-08T10:41:28;100619.52;;;43.47;6.60
78839;BME280;68405;47.190;27.558;2023-09-08T10:44:01;100614.84;;;42.85;6.28
78839;BME280;68405;47.190;27.558;2023-09-08T10:46:32;100609.52;;;43.08;6.41
78839;BME280;68405;47.190;27.558;2023-09-08T10:49:03;100607.92;;;43.52;6.62
78839;BME280;68405;47.190;27.558;2023-09-08T10:51:33;100603.59;;;41.92;7.64
78839;BME280;68405;47.190;27.558;2023-09-08T10:54:03;100604.29;;;41.84;7.81
78839;BME280;68405;47.190;27.558;2023-09-08T10:56:48;100602.34;;;42.30;7.79
78839;BME280;68405;47.190;27.558;2023-09-08T10:59:29;100602.08;;;41.60;7.58
78839;BME280;68405;47.190;27.558;2023-09-08T11:02:05;100603.13;;;41.71;7.46
78839;BME280;68405;47.190;27.558;2023-09-08T11:04:34;100600.63;;;41.66;7.10
78839;BME280;68405;47.190;27.558;2023-09-08T11:07:05;100591.34;;;41.75;7.06
78839;BME280;68405;47.190;27.558;2023-09-08T11:09:37;100590.96;;;41.23;7.55
78839;BME280;68405;47.190;27.558;2023-09-08T11:12:08;100585.02;;;40.48;8.16
78839;BME280;68405;47.190;27.558;2023-09-08T11:14:37;100586.77;;;40.15;8.53
78839;BME280;68405;47.190;27.558;2023-09-08T11:17:06;100584.84;;;40.18;8.56
78839;BME280;68405;47.190;27.558;2023-09-08T11:19:46;100583.16;;;39.64;8.50
78839;BME280;68405;47.190;27.558;2023-09-08T11:22:16;100582.90;;;38.86;8.61
78839;BME280;68405;47.190;27.558;2023-09-08T11:24:45;100578.48;;;38.08;9.43
78839;BME280;68405;47.190;27.558;2023-09-08T11:27:15;100574.38;;;38.00;9.41
78839;BME280;68405;47.190;27.558;2023-09-08T11:29:44;100574.77;;;37.78;9.67
78839;BME280;68405;47.190;27.558;2023-09-08T11:32:14;100578.94;;;36.60;9.99
78839;BME280;68405;47.190;27.558;2023-09-08T11:34:43;100568.45;;;36.43;10.27
78839;BME280;68405;47.190;27.558;2023-09-08T11:37:13;100562.56;;;36.60;10.79
78839;BME280;68405;47.190;27.558;2023-09-08T11:39:44;100556.56;;;36.56;10.78
78839;BME280;68405;47.190;27.558;2023-09-08T11:42:15;100550.51;;;36.66;10.72
78839;BME280;68405;47.190;27.558;2023-09-08T11:44:44;100554.45;;;35.51;11.48
78839;BME280;68405;47.190;27.558;2023-09-08T11:47:13;100555.30;;;35.51;11.71
78839;BME280;68405;47.190;27.558;2023-09-08T11:49:44;100546.84;;;35.85;11.27
78839;BME280;68405;47.190;27.558;2023-09-08T11:52:14;100538.45;;;35.38;11.20
78839;BME280;68405;47.190;27.558;2023-09-08T11:54:43;100535.91;;;34.95;12.37
78839;BME280;68405;47.190;27.558;2023-09-08T11:57:12;100532.70;;;34.74;12.61
78839;BME280;68405;47.190;27.558;2023-09-08T11:59:41;100530.27;;;34.91;12.27
78839;BME280;68405;47.190;27.558;2023-09-08T12:02:10;100524.96;;;33.95;13.02
78839;BME280;68405;47.190;27.558;2023-09-08T12:04:40;100520.14;;;34.11;12.63
78839;BME280;68405;47.190;27.558;2023-09-08T12:07:13;100520.13;;;33.90;12.76
78839;BME280;68405;47.190;27.558;2023-09-08T12:09:44;100515.61;;;33.62;11.99
78839;BME280;68405;47.190;27.558;2023-09-08T12:12:13;100517.34;;;32.90;12.92
78839;BME280;68405;47.190;27.558;2023-09-08T12:14:42;100513.80;;;33.36;12.44
78839;BME280;68405;47.190;27.558;2023-09-08T12:17:12;100515.93;;;33.37;12.71
78839;BME280;68405;47.190;27.558;2023-09-08T12:19:44;100514.47;;;33.14;12.02
78839;BME280;68405;47.190;27.558;2023-09-08T12:22:13;100505.77;;;33.19;11.83
78839;BME280;68405;47.190;27.558;2023-09-08T12:24:55;100507.90;;;32.03;12.66
78839;BME280;68405;47.190;27.558;2023-09-08T12:27:25;100506.80;;;31.56;13.26
78839;BME280;68405;47.190;27.558;2023-09-08T12:29:58;100501.80;;;31.47;13.26
78839;BME280;68405;47.190;27.558;2023-09-08T12:32:31;100501.61;;;31.34;13.17
78839;BME280;68405;47.190;27.558;2023-09-08T12:35:00;100500.39;;;31.28;13.54
78839;BME280;68405;47.190;27.558;2023-09-08T12:37:33;100496.91;;;31.33;13.55
78839;BME280;68405;47.190;27.558;2023-09-08T12:40:03;100490.48;;;31.21;12.89
78839;BME280;68405;47.190;27.558;2023-09-08T12:42:32;100487.96;;;31.33;12.79
78839;BME280;68405;47.190;27.558;2023-09-08T12:45:01;100478.41;;;31.47;13.40
78839;BME280;68405;47.190;27.558;2023-09-08T12:47:30;100480.35;;;31.65;13.23
78839;BME280;68405;47.190;27.558;2023-09-08T12:49:59;100476.06;;;31.68;13.58
78839;BME280;68405;47.190;27.558;2023-09-08T12:52:27;100474.12;;;31.14;13.81
78839;BME280;68405;47.190;27.558;2023-09-08T12:54:56;100469.63;;;31.04;13.83
78839;BME280;68405;47.190;27.558;2023-09-08T12:57:25;100466.14;;;30.85;14.23
78839;BME280;68405;47.190;27.558;2023-09-08T12:59:54;100460.98;;;30.68;14.77
78839;BME280;68405;47.190;27.558;2023-09-08T13:02:26;100459.52;;;30.43;14.83
78839;BME280;68405;47.190;27.558;2023-09-08T13:04:55;100458.58;;;30.40;15.26
78839;BME280;68405;47.190;27.558;2023-09-08T13:07:24;100454.50;;;30.31;15.17
78839;BME280;68405;47.190;27.558;2023-09-08T13:09:54;100452.33;;;30.43;14.73
78839;BME280;68405;47.190;27.558;2023-09-08T13:12:24;100446.38;;;30.22;15.63
78839;BME280;68405;47.190;27.558;2023-09-08T13:14:53;100444.02;;;30.03;15.23
78839;BME280;68405;47.190;27.558;2023-09-08T13:17:22;100442.77;;;29.94;14.90
78839;BME280;68405;47.190;27.558;2023-09-08T13:19:50;100439.59;;;29.90;14.95
78839;BME280;68405;47.190;27.558;2023-09-08T13:22:21;100439.90;;;29.70;15.57
78839;BME280;68405;47.190;27.558;2023-09-08T13:24:50;100437.27;;;29.59;15.76
78839;BME280;68405;47.190;27.558;2023-09-08T13:27:19;100431.72;;;29.57;16.31
78839;BME280;68405;47.190;27.558;2023-09-08T13:29:48;100427.91;;;29.29;16.94
78839;BME280;68405;47.190;27.558;2023-09-08T13:32:16;100424.36;;;28.99;17.31
78839;BME280;68405;47.190;27.558;2023-09-08T13:34:45;100422.52;;;28.93;17.48
78839;BME280;68405;47.190;27.558;2023-09-08T13:37:16;100417.12;;;29.05;17.34
78839;BME280;68405;47.190;27.558;2023-09-08T13:39:45;100416.48;;;29.05;17.28
78839;BME280;68405;47.190;27.558;2023-09-08T13:42:13;100415.65;;;28.81;17.05
78839;BME280;68405;47.190;27.558;2023-09-08T13:44:42;100414.50;;;28.79;17.13
78839;BME280;68405;47.190;27.558;2023-09-08T13:47:11;100407.10;;;28.71;17.25
78839;BME280;68405;47.190;27.558;2023-09-08T13:49:40;100409.36;;;28.59;17.38
78839;BME280;68405;47.190;27.558;2023-09-08T13:52:09;100402.44;;;28.46;18.09
78839;BME280;68405;47.190;27.558;2023-09-08T13:54:38;100401.69;;;28.41;18.73
78839;BME280;68405;47.190;27.558;2023-09-08T13:57:08;100399.96;;;28.39;19.45
78839;BME280;68405;47.190;27.558;2023-09-08T13:59:37;100396.05;;;28.30;20.10
78839;BME280;68405;47.190;27.558;2023-09-08T14:02:06;100392.55;;;28.22;20.88